createdAt,value
2023-02-26T00:01:41.230Z,18.23
2023-02-26T00:04:11.604Z,19.37
2023-02-26T00:06:54.431Z,20.50
2023-02-26T00:09:27.738Z,18.67
2023-02-26T00:11:56.516Z,17.13
2023-02-26T00:14:25.854Z,16.10
2023-02-26T00:17:09.657Z,15.80
2023-02-26T00:19:40.054Z,15.90
2023-02-26T00:22:08.920Z,15.50
2023-02-26T00:24:37.267Z,16.17
2023-02-26T00:27:05.590Z,16.73
2023-02-26T00:29:34.371Z,18.57
2023-02-26T00:32:03.374Z,16.73
2023-02-26T00:34:32.371Z,16.17
2023-02-26T00:37:12.938Z,17.57
2023-02-26T00:39:48.897Z,15.60
2023-02-26T00:42:17.670Z,16.13
2023-02-26T00:44:46.569Z,16.10
2023-02-26T00:47:24.598Z,16.60
2023-02-26T00:50:04.301Z,16.73
2023-02-26T00:52:42.212Z,15.93
2023-02-26T00:55:11.061Z,16.03
2023-02-26T00:57:39.315Z,17.60
2023-02-26T01:00:08.985Z,15.87
2023-02-26T01:02:38.938Z,15.37
2023-02-26T01:05:08.921Z,14.30
2023-02-26T01:07:43.209Z,13.70
2023-02-26T01:10:12.594Z,15.50
2023-02-26T01:12:41.416Z,16.03
2023-02-26T01:15:11.084Z,14.87
2023-02-26T01:17:46.909Z,14.73
2023-02-26T01:20:19.232Z,14.90
2023-02-26T01:22:55.029Z,14.13
2023-02-26T01:25:28.016Z,15.00
2023-02-26T01:27:57.759Z,14.97
2023-02-26T01:30:27.175Z,15.67
2023-02-26T01:33:02.294Z,15.20
2023-02-26T01:35:40.929Z,14.13
2023-02-26T01:38:21.851Z,14.30
2023-02-26T01:41:21.942Z,15.67
2023-02-26T01:43:58.150Z,14.27
2023-02-26T01:46:35.935Z,14.60
2023-02-26T01:49:06.189Z,13.97
2023-02-26T01:51:49.931Z,14.47
2023-02-26T01:54:22.121Z,13.83
2023-02-26T01:56:54.386Z,14.17
2023-02-26T01:59:24.742Z,13.50
2023-02-26T02:01:54.858Z,13.50
2023-02-26T02:04:25.112Z,12.87
2023-02-26T02:06:54.659Z,14.63
2023-02-26T02:09:24.374Z,12.90
2023-02-26T02:12:09.302Z,14.17
2023-02-26T02:14:48.452Z,13.90
2023-02-26T02:17:25.268Z,13.23
2023-02-26T02:20:21.172Z,13.87
2023-02-26T02:23:11.975Z,17.07
2023-02-26T02:26:11.679Z,14.73
2023-02-26T02:28:52.779Z,13.73
2023-02-26T02:31:26.637Z,11.30
2023-02-26T02:34:01.800Z,14.47
2023-02-26T02:36:35.625Z,13.87
2023-02-26T02:39:08.301Z,13.03
2023-02-26T02:41:41.328Z,13.90
2023-02-26T02:44:14.432Z,12.00
2023-02-26T02:46:46.923Z,13.97
2023-02-26T02:49:19.146Z,12.97
2023-02-26T02:51:53.017Z,14.53
2023-02-26T02:54:26.150Z,16.87
2023-02-26T02:56:58.740Z,17.27
2023-02-26T02:59:32.431Z,15.90
2023-02-26T03:02:07.960Z,15.67
2023-02-26T03:04:36.471Z,14.03
2023-02-26T03:07:04.895Z,14.20
2023-02-26T03:09:33.253Z,13.93
2023-02-26T03:12:01.792Z,13.63
2023-02-26T03:14:31.538Z,12.93
2023-02-26T03:17:16.910Z,14.40
2023-02-26T03:19:53.435Z,14.00
2023-02-26T03:22:29.641Z,14.90
2023-02-26T03:25:02.960Z,15.10
2023-02-26T03:27:36.499Z,15.43
2023-02-26T03:30:09.212Z,16.13
2023-02-26T03:32:50.305Z,14.80
2023-02-26T03:35:23.061Z,14.47
2023-02-26T03:37:55.907Z,15.37
2023-02-26T03:40:30.390Z,15.53
2023-02-26T03:43:03.731Z,17.47
2023-02-26T03:45:35.480Z,17.70
2023-02-26T03:48:09.681Z,14.90
2023-02-26T03:50:42.106Z,14.40
2023-02-26T03:53:15.292Z,14.77
2023-02-26T03:55:52.766Z,13.87
2023-02-26T03:58:21.190Z,13.57
2023-02-26T04:00:55.700Z,14.33
2023-02-26T04:03:30.239Z,13.87
2023-02-26T04:05:59.285Z,13.93
2023-02-26T04:08:27.823Z,14.37
2023-02-26T04:10:58.955Z,14.13
2023-02-26T04:13:28.497Z,13.10
2023-02-26T04:15:56.742Z,13.53
2023-02-26T04:18:26.337Z,15.77
2023-02-26T04:20:54.526Z,14.23
2023-02-26T04:23:22.718Z,17.97
2023-02-26T04:25:50.952Z,17.97
2023-02-26T04:28:19.159Z,19.57
2023-02-26T04:30:47.460Z,23.40
2023-02-26T04:33:16.344Z,27.27
2023-02-26T04:35:45.994Z,30.43
2023-02-26T04:38:14.284Z,31.17
2023-02-26T04:40:42.368Z,8.57
2023-02-26T04:43:10.688Z,4.23
2023-02-26T04:45:38.822Z,2.63
2023-02-26T04:48:07.010Z,2.63
2023-02-26T04:50:35.346Z,2.37
2023-02-26T04:53:05.013Z,1.90
2023-02-26T04:55:33.204Z,1.70
2023-02-26T04:58:01.398Z,1.67
2023-02-26T05:00:29.775Z,1.50
2023-02-26T05:02:58.045Z,1.70
2023-02-26T05:05:26.566Z,1.83
2023-02-26T05:07:59.163Z,2.00
2023-02-26T05:10:29.135Z,1.50
2023-02-26T05:12:57.392Z,1.57
2023-02-26T05:15:25.644Z,1.63
2023-02-26T05:17:53.952Z,2.00
2023-02-26T05:20:22.574Z,1.87
2023-02-26T05:22:50.816Z,2.00
2023-02-26T05:25:19.221Z,2.23
2023-02-26T05:27:48.858Z,1.70
2023-02-26T05:30:17.873Z,2.00
2023-02-26T05:32:46.454Z,1.63
2023-02-26T05:35:15.165Z,2.20
2023-02-26T05:37:43.382Z,1.70
2023-02-26T05:40:12.813Z,1.57
2023-02-26T05:42:41.465Z,1.73
2023-02-26T05:45:11.815Z,1.60
2023-02-26T05:47:40.089Z,1.43
2023-02-26T05:50:09.178Z,1.80
2023-02-26T05:52:37.473Z,1.83
2023-02-26T05:55:06.997Z,1.60
2023-02-26T05:57:35.452Z,1.50
2023-02-26T06:00:04.082Z,1.23
2023-02-26T06:02:33.566Z,1.20
2023-02-26T06:05:01.735Z,1.27
2023-02-26T06:07:30.271Z,1.20
2023-02-26T06:09:58.457Z,1.00
2023-02-26T06:12:26.850Z,1.40
2023-02-26T06:14:55.059Z,1.10
2023-02-26T06:17:23.320Z,1.13
2023-02-26T06:19:53.255Z,1.10
2023-02-26T06:22:21.547Z,1.00
2023-02-26T06:24:49.999Z,0.93
2023-02-26T06:27:18.873Z,0.90
2023-02-26T06:29:47.122Z,0.70
2023-02-26T06:32:15.560Z,1.30
2023-02-26T06:34:43.894Z,0.83
2023-02-26T06:37:13.492Z,0.87
2023-02-26T06:39:41.732Z,0.50
2023-02-26T06:42:10.012Z,1.03
2023-02-26T06:44:38.185Z,0.73
2023-02-26T06:47:06.573Z,0.80
2023-02-26T06:49:34.963Z,0.97
2023-02-26T06:52:03.161Z,1.00
2023-02-26T06:54:32.747Z,0.87
2023-02-26T06:57:02.716Z,1.10
2023-02-26T06:59:31.005Z,0.80
2023-02-26T07:01:59.240Z,1.20
2023-02-26T07:04:27.491Z,0.90
2023-02-26T07:06:55.730Z,1.07
2023-02-26T07:09:23.904Z,0.60
2023-02-26T07:11:53.532Z,1.20
2023-02-26T07:14:21.764Z,0.80
2023-02-26T07:16:49.960Z,0.60
2023-02-26T07:19:18.201Z,0.77
2023-02-26T07:21:46.849Z,1.00
2023-02-26T07:24:15.073Z,1.00
2023-02-26T07:26:44.473Z,0.87
2023-02-26T07:29:14.265Z,0.97
2023-02-26T07:31:42.629Z,0.90
2023-02-26T07:34:11.218Z,0.80
2023-02-26T07:36:39.602Z,0.83
2023-02-26T07:39:07.882Z,0.90
2023-02-26T07:41:36.141Z,0.90
2023-02-26T07:44:04.461Z,1.10
2023-02-26T07:46:34.280Z,0.90
2023-02-26T07:49:02.532Z,0.77
2023-02-26T07:51:32.507Z,1.00
2023-02-26T07:54:00.818Z,0.80
2023-02-26T07:56:29.006Z,0.97
2023-02-26T07:58:57.192Z,0.80
2023-02-26T08:01:25.522Z,0.63
2023-02-26T08:03:55.137Z,0.50
2023-02-26T08:06:23.808Z,0.70
2023-02-26T08:08:52.272Z,0.83
2023-02-26T08:11:20.507Z,1.00
2023-02-26T08:13:48.810Z,6.20
2023-02-26T08:16:17.158Z,6.60
2023-02-26T08:18:45.314Z,7.70
2023-02-26T08:21:14.842Z,4.90
2023-02-26T08:23:43.076Z,1.40
2023-02-26T08:26:13.600Z,1.43
2023-02-26T08:28:41.884Z,1.87
2023-02-26T08:31:10.244Z,1.80
2023-02-26T08:33:38.507Z,1.20
2023-02-26T08:36:07.691Z,1.83
2023-02-26T08:38:37.223Z,1.50
2023-02-26T08:41:05.968Z,1.00
2023-02-26T08:43:34.104Z,1.70
2023-02-26T08:46:02.337Z,1.90
2023-02-26T08:48:30.612Z,0.90
2023-02-26T08:50:58.800Z,1.50
2023-02-26T08:53:27.086Z,1.00
2023-02-26T08:55:56.655Z,5.90
2023-02-26T08:58:24.918Z,1.83
2023-02-26T09:00:53.127Z,1.00
2023-02-26T09:03:21.310Z,1.50
2023-02-26T09:05:49.617Z,1.20
2023-02-26T09:08:17.803Z,1.13
2023-02-26T09:10:45.977Z,1.03
2023-02-26T09:13:15.489Z,2.10
2023-02-26T09:15:43.834Z,1.30
2023-02-26T09:18:15.603Z,1.60
2023-02-26T09:20:43.958Z,1.50
2023-02-26T09:23:13.386Z,2.10
2023-02-26T09:25:41.788Z,2.00
2023-02-26T09:28:10.138Z,2.20
2023-02-26T09:30:39.749Z,1.43
2023-02-26T09:33:09.552Z,1.13
2023-02-26T09:35:38.002Z,1.10
2023-02-26T09:38:06.224Z,1.67
2023-02-26T09:40:43.991Z,1.40
2023-02-26T09:43:36.231Z,1.73
2023-02-26T09:46:12.284Z,1.90
2023-02-26T09:48:42.125Z,1.23
2023-02-26T09:51:15.228Z,1.17
2023-02-26T09:53:44.483Z,1.60
2023-02-26T09:56:17.540Z,2.30
2023-02-26T09:58:46.971Z,1.50
2023-02-26T10:01:24.600Z,2.93
2023-02-26T10:04:03.136Z,1.80
2023-02-26T10:06:34.314Z,1.17
2023-02-26T10:09:26.226Z,1.10
2023-02-26T10:12:00.087Z,1.00
2023-02-26T10:14:33.223Z,0.70
2023-02-26T10:17:08.854Z,1.20
2023-02-26T10:19:44.124Z,0.87
2023-02-26T10:22:21.714Z,0.73
2023-02-26T10:24:53.536Z,1.00
2023-02-26T10:27:29.217Z,1.03
2023-02-26T10:30:02.041Z,0.80
2023-02-26T10:32:37.055Z,1.30
2023-02-26T10:35:09.929Z,1.00
2023-02-26T10:37:48.686Z,2.10
2023-02-26T10:40:20.375Z,1.23
2023-02-26T10:42:53.940Z,1.47
2023-02-26T10:45:36.010Z,7.17
2023-02-26T10:48:18.726Z,2.40
2023-02-26T10:50:51.394Z,1.90
2023-02-26T10:53:19.982Z,1.77
2023-02-26T10:55:52.168Z,1.20
2023-02-26T10:58:26.503Z,1.20
2023-02-26T11:00:56.713Z,0.67
2023-02-26T11:03:32.869Z,1.23
2023-02-26T11:06:02.505Z,1.07
2023-02-26T11:08:34.158Z,1.00
2023-02-26T11:11:04.412Z,1.13
2023-02-26T11:13:34.719Z,1.13
2023-02-26T11:16:06.546Z,1.00
2023-02-26T11:18:40.789Z,0.87
2023-02-26T11:21:16.901Z,1.60
2023-02-26T11:23:47.310Z,1.23
2023-02-26T11:26:19.318Z,1.70
2023-02-26T11:28:49.142Z,1.00
2023-02-26T11:31:20.022Z,1.73
2023-02-26T11:33:55.627Z,1.20
2023-02-26T11:36:26.735Z,1.20
2023-02-26T11:38:58.717Z,1.50
2023-02-26T11:41:29.439Z,1.10
2023-02-26T11:44:02.696Z,2.13
2023-02-26T11:46:31.214Z,18.23
2023-02-26T11:49:02.704Z,2.17
2023-02-26T11:51:31.667Z,1.10
2023-02-26T11:54:02.850Z,2.57
2023-02-26T11:56:34.279Z,1.20
2023-02-26T11:59:08.646Z,1.20
2023-02-26T12:01:38.236Z,1.00
2023-02-26T12:04:11.531Z,1.40
2023-02-26T12:06:39.792Z,1.70
2023-02-26T12:09:13.253Z,1.33
2023-02-26T12:11:56.973Z,1.30
2023-02-26T12:14:49.182Z,1.80
2023-02-26T12:17:33.094Z,0.97
2023-02-26T12:20:19.363Z,1.40
2023-02-26T12:22:55.932Z,1.30
2023-02-26T12:25:38.256Z,1.03
2023-02-26T12:28:27.094Z,0.83
2023-02-26T12:31:15.677Z,21.87
2023-02-26T12:33:55.007Z,1.50
2023-02-26T12:36:48.518Z,0.97
2023-02-26T12:39:39.554Z,0.90
2023-02-26T12:42:19.156Z,1.00
2023-02-26T12:45:26.379Z,0.90
2023-02-26T12:48:24.435Z,0.80
2023-02-26T12:51:04.012Z,1.00
2023-02-26T12:53:52.476Z,0.90
2023-02-26T12:56:50.103Z,1.20
2023-02-26T12:59:29.840Z,2.27
2023-02-26T13:02:18.950Z,1.60
2023-02-26T13:05:14.185Z,1.70
2023-02-26T13:07:54.026Z,0.87
2023-02-26T13:10:32.715Z,0.83
2023-02-26T13:13:19.994Z,1.03
2023-02-26T13:16:00.267Z,0.97
2023-02-26T13:18:35.893Z,19.87
2023-02-26T13:21:07.454Z,1.60
2023-02-26T13:23:42.304Z,0.93
2023-02-26T13:26:14.288Z,1.00
2023-02-26T13:28:45.852Z,1.20
2023-02-26T13:31:18.442Z,1.20
2023-02-26T13:33:49.680Z,1.23
2023-02-26T13:36:18.369Z,1.10
2023-02-26T13:38:57.809Z,1.13
2023-02-26T13:41:35.891Z,1.07
2023-02-26T13:44:19.026Z,1.40
2023-02-26T13:46:59.332Z,1.10
2023-02-26T13:49:36.764Z,1.77
2023-02-26T13:52:05.086Z,2.10
2023-02-26T13:54:45.163Z,1.50
2023-02-26T13:57:37.381Z,2.13
2023-02-26T14:00:23.203Z,9.40
2023-02-26T14:02:57.179Z,8.83
2023-02-26T14:05:55.312Z,4.27
2023-02-26T14:08:51.726Z,7.57
2023-02-26T14:11:43.211Z,25.07
2023-02-26T14:14:24.348Z,2.80
2023-02-26T14:16:56.880Z,7.07
2023-02-26T14:19:30.562Z,3.00
2023-02-26T14:22:03.496Z,1.90
2023-02-26T14:24:37.506Z,1.40
2023-02-26T14:27:23.996Z,13.13
2023-02-26T14:30:04.928Z,2.10
2023-02-26T14:32:35.135Z,1.10
2023-02-26T14:35:08.143Z,1.50
2023-02-26T14:37:39.893Z,1.40
2023-02-26T14:40:16.179Z,1.40
2023-02-26T14:42:50.284Z,2.00
2023-02-26T14:45:36.456Z,1.80
2023-02-26T14:48:08.141Z,1.77
2023-02-26T14:50:47.331Z,1.80
2023-02-26T14:53:43.667Z,1.93
2023-02-26T14:56:18.465Z,1.40
2023-02-26T14:59:15.387Z,1.50
2023-02-26T15:01:50.815Z,1.70
2023-02-26T15:04:50.682Z,1.90
2023-02-26T15:07:43.252Z,1.40
2023-02-26T15:10:22.215Z,4.47
2023-02-26T15:13:07.119Z,2.63
2023-02-26T15:15:46.150Z,1.83
2023-02-26T15:18:32.169Z,1.80
2023-02-26T15:21:09.169Z,4.50
2023-02-26T15:23:42.080Z,2.30
2023-02-26T15:26:18.638Z,2.00
2023-02-26T15:28:47.300Z,1.70
2023-02-26T15:31:15.793Z,1.80
2023-02-26T15:33:45.880Z,2.33
2023-02-26T15:36:17.793Z,2.50
2023-02-26T15:38:49.407Z,2.10
2023-02-26T15:41:18.669Z,2.43
2023-02-26T15:43:51.324Z,3.00
2023-02-26T15:46:21.668Z,3.43
2023-02-26T15:48:51.336Z,2.50
2023-02-26T15:51:21.214Z,2.03
2023-02-26T15:53:52.313Z,1.60
2023-02-26T15:56:25.196Z,1.47
2023-02-26T15:58:56.323Z,1.60
2023-02-26T16:01:26.689Z,1.17
2023-02-26T16:03:59.764Z,1.30
2023-02-26T16:06:34.251Z,1.40
2023-02-26T16:09:03.018Z,1.00
2023-02-26T16:11:35.268Z,1.60
2023-02-26T16:14:04.606Z,1.90
2023-02-26T16:16:41.592Z,1.73
2023-02-26T16:19:16.152Z,1.90
2023-02-26T16:21:45.216Z,1.37
2023-02-26T16:24:17.569Z,1.57
2023-02-26T16:26:50.367Z,1.30
2023-02-26T16:29:22.151Z,1.20
2023-02-26T16:31:54.466Z,1.20
2023-02-26T16:34:31.083Z,1.47
2023-02-26T16:36:59.733Z,1.50
2023-02-26T16:39:32.452Z,1.50
2023-02-26T16:42:11.342Z,1.70
2023-02-26T16:44:49.962Z,1.20
2023-02-26T16:47:19.319Z,1.00
2023-02-26T16:49:49.599Z,1.37
2023-02-26T16:52:21.341Z,1.00
2023-02-26T16:54:57.600Z,1.10
2023-02-26T16:57:31.321Z,4.63
2023-02-26T17:00:05.288Z,4.57
2023-02-26T17:02:36.297Z,2.90
2023-02-26T17:05:21.487Z,1.90
2023-02-26T17:07:58.308Z,1.93
2023-02-26T17:10:34.033Z,1.50
2023-02-26T17:13:14.651Z,1.90
2023-02-26T17:15:43.179Z,1.40
2023-02-26T17:18:11.409Z,1.63
2023-02-26T17:20:41.789Z,1.90
2023-02-26T17:23:10.513Z,1.20
2023-02-26T17:25:41.982Z,1.33
2023-02-26T17:28:16.507Z,1.43
2023-02-26T17:30:44.809Z,1.30
2023-02-26T17:33:15.236Z,1.10
2023-02-26T17:35:45.725Z,1.30
2023-02-26T17:38:16.023Z,1.10
2023-02-26T17:40:47.649Z,1.00
2023-02-26T17:43:16.690Z,0.90
2023-02-26T17:45:45.049Z,0.93
2023-02-26T17:48:14.742Z,0.90
2023-02-26T17:50:48.126Z,14.17
2023-02-26T17:53:17.305Z,1.83
2023-02-26T17:55:46.537Z,1.70
2023-02-26T17:58:18.398Z,1.10
2023-02-26T18:00:49.841Z,1.30
2023-02-26T18:03:18.744Z,1.37
2023-02-26T18:05:49.478Z,1.40
2023-02-26T18:08:23.290Z,1.30
2023-02-26T18:10:52.093Z,1.50
2023-02-26T18:13:20.883Z,1.60
2023-02-26T18:15:49.752Z,1.50
2023-02-26T18:18:18.723Z,3.07
2023-02-26T18:20:48.808Z,17.03
2023-02-26T18:23:17.678Z,9.53
2023-02-26T18:25:47.213Z,4.03
2023-02-26T18:28:17.960Z,3.03
2023-02-26T18:30:46.580Z,2.70
2023-02-26T18:33:17.033Z,1.90
2023-02-26T18:35:48.596Z,2.10
2023-02-26T18:38:19.304Z,2.03
2023-02-26T18:40:48.726Z,2.70
2023-02-26T18:43:17.286Z,1.93
2023-02-26T18:45:47.338Z,1.67
2023-02-26T18:48:17.229Z,2.10
2023-02-26T18:50:48.098Z,1.80
2023-02-26T18:53:17.695Z,1.90
2023-02-26T18:55:46.261Z,1.60
2023-02-26T18:58:14.668Z,31.83
2023-02-26T19:00:42.949Z,3.03
2023-02-26T19:03:11.168Z,1.70
2023-02-26T19:05:39.629Z,1.87
2023-02-26T19:08:09.319Z,1.70
2023-02-26T19:10:38.020Z,1.73
2023-02-26T19:13:06.451Z,1.80
2023-02-26T19:15:34.697Z,1.77
2023-02-26T19:18:02.916Z,3.10
2023-02-26T19:20:31.270Z,2.70
2023-02-26T19:23:00.962Z,2.10
2023-02-26T19:25:31.048Z,3.30
2023-02-26T19:27:59.272Z,2.50
2023-02-26T19:30:27.573Z,2.10
2023-02-26T19:32:56.159Z,2.03
2023-02-26T19:35:26.953Z,2.40
2023-02-26T19:37:55.564Z,2.20
2023-02-26T19:40:24.544Z,2.07
2023-02-26T19:42:54.103Z,1.57
2023-02-26T19:45:22.263Z,1.77
2023-02-26T19:47:50.520Z,2.87
2023-02-26T19:50:19.408Z,2.13
2023-02-26T19:52:47.613Z,2.60
2023-02-26T19:55:15.843Z,2.40
2023-02-26T19:57:44.047Z,2.47
2023-02-26T20:00:15.864Z,2.50
2023-02-26T20:02:44.062Z,3.00
2023-02-26T20:05:17.000Z,2.80
2023-02-26T20:07:48.070Z,2.40
2023-02-26T20:10:16.952Z,3.40
2023-02-26T20:12:46.025Z,2.10
2023-02-26T20:15:15.738Z,2.63
2023-02-26T20:17:44.007Z,3.10
2023-02-26T20:20:13.137Z,2.47
2023-02-26T20:22:41.546Z,2.23
2023-02-26T20:25:10.624Z,2.20
2023-02-26T20:27:39.310Z,2.80
2023-02-26T20:30:09.216Z,1.70
2023-02-26T20:32:39.037Z,2.13
2023-02-26T20:35:08.024Z,3.97
2023-02-26T20:37:36.407Z,2.63
2023-02-26T20:40:06.180Z,2.17
2023-02-26T20:42:34.739Z,2.47
2023-02-26T20:45:02.968Z,2.50
2023-02-26T20:47:31.863Z,1.83
2023-02-26T20:50:01.674Z,2.33
2023-02-26T20:52:29.988Z,2.70
2023-02-26T20:54:58.152Z,2.13
2023-02-26T20:57:26.328Z,2.87
2023-02-26T20:59:54.937Z,3.20
2023-02-26T21:02:23.257Z,2.50
2023-02-26T21:04:51.536Z,2.43
2023-02-26T21:07:22.809Z,2.30
2023-02-26T21:09:52.095Z,2.40
2023-02-26T21:12:20.795Z,2.27
2023-02-26T21:14:51.368Z,2.00
2023-02-26T21:17:19.833Z,2.00
2023-02-26T21:19:48.108Z,2.17
2023-02-26T21:22:16.350Z,1.77
2023-02-26T21:24:46.220Z,1.90
2023-02-26T21:27:16.809Z,2.13
2023-02-26T21:29:45.233Z,2.57
2023-02-26T21:32:13.654Z,1.80
2023-02-26T21:34:42.046Z,1.60
2023-02-26T21:37:12.266Z,2.63
2023-02-26T21:39:41.105Z,1.77
2023-02-26T21:42:13.443Z,1.70
2023-02-26T21:44:41.726Z,1.53
2023-02-26T21:47:10.304Z,1.60
2023-02-26T21:49:38.809Z,1.57
2023-02-26T21:52:08.569Z,1.30
2023-02-26T21:54:37.091Z,1.30
2023-02-26T21:57:05.369Z,1.53
2023-02-26T21:59:35.286Z,1.57
2023-02-26T22:02:04.511Z,1.47
2023-02-26T22:04:36.741Z,1.23
2023-02-26T22:07:04.972Z,1.87
2023-02-26T22:09:33.192Z,1.40
2023-02-26T22:12:01.586Z,1.30
2023-02-26T22:14:30.211Z,1.30
2023-02-26T22:16:59.843Z,2.10
2023-02-26T22:19:28.173Z,1.60
2023-02-26T22:21:56.303Z,1.73
2023-02-26T22:24:24.635Z,1.50
2023-02-26T22:26:52.836Z,1.30
2023-02-26T22:29:21.094Z,1.30
2023-02-26T22:31:49.420Z,1.50
2023-02-26T22:34:18.984Z,1.50
2023-02-26T22:36:47.177Z,1.40
2023-02-26T22:39:15.445Z,1.40
2023-02-26T22:41:44.052Z,1.43
2023-02-26T22:44:12.296Z,1.50
2023-02-26T22:46:40.827Z,1.30
2023-02-26T22:49:09.351Z,1.50
2023-02-26T22:51:38.929Z,1.13
2023-02-26T22:54:07.464Z,1.20
2023-02-26T22:56:35.735Z,1.40
2023-02-26T22:59:03.944Z,1.40
2023-02-26T23:01:32.209Z,1.77
2023-02-26T23:04:00.507Z,1.57
2023-02-26T23:06:28.716Z,1.50
2023-02-26T23:08:58.426Z,1.50
2023-02-26T23:11:26.862Z,1.40
2023-02-26T23:13:55.228Z,1.40
2023-02-26T23:16:23.782Z,1.43
2023-02-26T23:18:52.013Z,1.17
2023-02-26T23:21:20.478Z,1.10
2023-02-26T23:23:48.710Z,1.20
2023-02-26T23:26:18.465Z,1.30
2023-02-26T23:28:47.110Z,1.20
2023-02-26T23:31:15.395Z,1.20
2023-02-26T23:33:43.725Z,1.50
2023-02-26T23:36:12.005Z,1.17
2023-02-26T23:38:40.182Z,1.10
2023-02-26T23:41:08.621Z,1.63
2023-02-26T23:43:38.215Z,1.30
2023-02-26T23:46:06.698Z,1.00
2023-02-26T23:48:34.906Z,0.90
2023-02-26T23:51:03.064Z,1.10
2023-02-26T23:53:31.251Z,0.97
2023-02-26T23:55:59.448Z,1.20
2023-02-26T23:58:29.859Z,1.10
